ZLXY

Xi'an Xianyang International Airport

Xianyang, China
TAF ZLXY 220902Z 2212/2312 06003MPS 3000 HZ NSC TX12/2308Z TNM06/23Z
Issued Valid From Valid To
Jan-22 @ 09:02 UTC
(8 hours ago)
Jan-22 @ 12:00 UTC
(5 hours ago)
Jan-23 @ 12:00 UTC
(in 19 hours)
Jan-22 @ 12:00 to Jan-23 @ 12:00
TAF ZLXY 220902Z 2212/2312 06003MPS 3000 HZ NSC TX12/2308Z TNM06/23Z
Wind Visibility Clouds Conditions
60° at 6 knots 2,993 meters
  • No significant clouds
  • Haze
TAF ZLXY 220902Z 2212/2312 06003MPS 3000 HZ NSC TX12/2308Z TNM06/23Z
Issued Jan-22 @ 09:02 UTC
(8 hours ago)
Valid From Jan-22 @ 12:00 UTC
(5 hours ago)
Valid To Jan-23 @ 12:00 UTC
(in 19 hours)
Jan-22 @ 12:00 - Jan-23 @ 12:00
Wind Visibility
60° at 6 knots 2,993 meters
Clouds
  • No significant clouds
Conditions
  • Haze